Timeline UpdatesTrip UpdatesNews PostsPvt PostsTravel TipsAdmin PostsConv PostsFollowed PostsChat RequestsBlog PostsPNR Posts

Disclaimer
Search
 
 
Mon Apr 21, 2014 02:44:04 ISTHomeTrainsΣChainsAtlasPNRForumGalleryNewsFAQTripsMembersLoginFeedback
No Recent News for this Train
Other Trains in the News **new
Latest...
.
Mon Mar 31, 2014 (12:52PM)
⇐ Return Journey: Train# 16338

16337/Okha-Ernakulam Express

Dec 13 2013 (11:22PM)
Change Departure Station:
Change Arrival Station:
Post a Train Travel TipPost a Train Travel Tip **new
Post a Comment/Question/Picture/VideoPost a Comment/Question/Picture/Video
Pantry/Catering
✓ Pantry Car Avbl
✓ Catering Avbl
RSA - Rake Sharing
12683/84 Ernakulam Bangalore Express
Rake/Coach Composition
SLR-UR-A1-B2-B1-S12-S11-PC-S10-S9-S8-S7-S6-S5-S4-S3-S2-S1-UR-UR-SLR.; Author: Mahesh Kavthankar.; Entry# 276086.
Loco
ERS WDM3A
News    PNR    Forum    Time-Table    Availability    Fare Chart    Map    Arr/Dep History    Trips    Gallery    ΣChains    X/O    Timeline    
Travel Time: 38h 23m    36 halts    Distance: 1993 km    Avg Speed: 51 km/hr
Type: Mail/Express
Zone: SR/Southern
Departs @ 02:00 (Avg 35m late)
Platform# 1
 M    S
Okha/OKHA 
Arrives @ 16:23 +1 night (Avg 1h 0m late)
Platform# 2
S T    
Thalassery/TLY 

36 halts. 264 intermediate Stations between Okha and Thalassery

Show ALL intermediate Stations  Show Old Time-Table

#CodeStation NameX/OArrivesAvgDepartsAvgHaltPFDay#KmSpeedElevZoneAddress
1OKHA»Okha (3)»  -02:00+35110.0615mWROkha, Gujarat
2DWKDwarka (2)  02:28+202:30+52m--128.65914mWRDwarka, Gujarat
3KMBLKhambhalia  03:56+4103:58+432m--1112.74849mWRKhambhalia, Gujarat
4JAMJamnagar (2)  05:06+3705:08+442m--1167.04014mWRJamnagar, Gujarat
5HAPAHapa (3)05:21+4705:23+552m--1175.76516mWRJamnagar, Gujarat
6RJTRajkot Junction (5)X  06:33+5406:35+572m11251.661128mWRRajkot, Gujarat
7SUNRSurendranagar Junction (4)X  08:30+5408:32+562m--1367.65072mWRSurendra Nagar, Gujarat
8VGViramgam Junction (5)  09:50+4109:52+442m21433.15429mWRViramgam, Gujarat
9ADIAhmedabad Junction (12)X  11:05+4111:25+4020m61498.56251mWRAhmedabad, Gujarat
10ANNDAnand Junction (6)X  12:27+5512:29+552m11562.55244mWRAnand, Gujarat
11BRCVadodara Junction (7)X  13:10+5513:12+1:012m11598.37036mWRVadodara, Gujarat
12AKVAnkleshwar Junction (4)X  14:20+1:1114:22+1:092m21678.14219mWRAnkleshwar, Gujarat
13STSurat (4)X  15:33+1:0515:35+1:132m21728.15719mWRSurat 395001, Gujarat
14NVSNavsari (3)  16:06+1:1416:08+1:152m21757.76214mWRNavsari, Gujarat
15BLValsad (3)X  16:46+1:1316:48+1:162m31796.84515mWRValsad, Gujarat
16BORBoisar (3)X18:57+4118:59+422m--1893.33517mWRBoisar Tel.no-02525-266626, Maharashtra
17BSRVasai Road (7)  20:25+3120:30+405m71944.1457mWRThane-401202, Maharashtra
18BIRDBhiwandi Road (4)  21:06+3521:08+362m11971.43826mCRBhiwandi, Maharashtra
19PNVLPanvel Junction (7)  22:00+4022:05+465m711009.24910mCRPanvel, Maharashtra
20MNIMangaon (2)  00:14+4600:16+512m121115.36712mKRMangaon - 402104, Maharashtra
21RNRatnagiri (3)  02:50+3902:55+515m121288.275129mKRRatnagiri 415612, Maharashtra
22KKWKankavali (2)  04:24+1:1404:26+1:152m121399.65245mKRKankavli - 416602, Maharashtra
23THVMThivim (2)X  05:56+1:5105:58+1:542m121478.22921mKRThivim - 403502, Goa
24MAOMadgaon Junction (3)  07:30+1:2907:40+1:3910m121523.15311mKRMadgaon 403601, Goa
25KAWRKarwar (2)  08:50+1:3108:52+1:322m121584.46814mKRKarwar, Karnataka
26HNAHonnavar (2)  09:53+1:3009:55+1:332m--21653.3634mKRUttara Kannada Dist, Karnataka
27BTJLBhatkal (2)X  10:34+1:2710:36+1:282m121694.24616mKRBhatkal, Karnataka
28BYNRByndoor Mookambika Road (1)X  10:56+1:2810:58+1:282m121709.47710mKRUdupi Dist. 576214, Karnataka
29KUDAKundapura (2)  11:24+1:2811:26+1:282m121743.06913mKRBasrur, Karnataka
30UDUdupi (2)  11:54+1:2511:56+1:252m121775.05718mKRUdupi, Karnataka
31SLSurathkal (1)  12:40+1:1212:42+1:112m121816.82622mKRSurathkal, Karnataka
32MAJNMangalore Junction (3)  13:30+1:0513:40+1:0910m121837.46824mSRMangalore 575001, Karnataka
33KGQKasaragod (3)  14:23+1:1114:25+1:112m--21886.47318mSRTel: 04994 220800, Kerala
34KZEKanhangad (3)  14:44+1:1314:45+1:141m--21909.66315mSRKanhangad, Kerala
35PAYPayyanur (3)  15:13+1:1315:15+1:132m221938.9880mSRKannur District, Kerala
36KPQKannapuram (2)  15:28+1:1415:30+1:132m--21958.0299mSRKannur District, Kerala
37CANKannur Main (3)  16:00+5916:05+1:005m321972.56914mSRKannur Tel: 0497 2705555, Kerala
38TLY•Thalassery (2)•  16:23+1:0016:25+1:002m221993.2749mSRKannur, Kerala
39BDJVadakara (2)  16:43+1:0216:45+1:022m122015.37311mSRCalicut / Station Ph No : 0496-2524254, Kerala
40QLDKoyilandy (3)X  17:03+1:0117:05+1:002m222037.24211mSRQuilandi, Kerala
41CLTKozhikode Main (4)XO  17:40+5217:45+535m122061.64611mSRCalicut Tel: 0495 2701234, Kerala
42FKFerok (2)X  17:58+5518:00+542m122071.57019mSRFeroke, Kerala
43PGIParappangadi (2)X  18:13+5918:15+582m122086.75419mSRParappanangadi, Kerala
44TIRTirur (3)X  18:33+5718:35+562m322102.8569mSRTel: 0494 2422240, Kerala
45KTUKuttippuram (2)  18:51+5618:53+562m222117.97417mSRKuttippuram, Kerala
46PTBPattambi (2)X  19:08+5819:10+582m222136.31521mSRPattambi, Kerala
47SRRShoranur Junction (7)  19:55+4220:05+4410m422147.94426mSRShoranur ph.no 0466-2222913, Kerala
48TCRThrissur (4)X  20:50+4420:53+443m122180.8686mSRThrissur Tel: 0487 2423150, Kerala
49AWYAluva (3)X  21:41+5221:43+522m122235.43112mSRPh: 0484-2624141, Kerala
50ERSErnakulam Junction (South) (6)  22:20+43-522254.8-3mSRErnakulam 682016, Kerala
Scroll to Top
Scroll to Bottom